Time;durP1;ratioP1;P1;durP2;ratioP2;P2;SDS_P1;SDS_P2;PMS_P1;PMS_P2;Temp;Humidity;BMP_temperature;BMP_pressure;BME280_temperature;BME280_humidity;BME280_pressure;Samples;Min_cycle;Max_cycle;Signal;HPM_P1;HPM_P2
2022/05/02 00:00:17;;;;;;;2.35;1.83;;;3.50;1.40;;;4.61;100.00;95470.06;647591;212;31593;-74
2022/05/02 00:03:01;;;;;;;1.52;0.90;;;3.60;1.40;;;4.64;100.00;95472.27;648332;212;42177;-74
2022/05/02 00:05:43;;;;;;;1.80;1.30;;;3.60;1.40;;;4.63;100.00;95471.84;646251;216;32137;-76
2022/05/02 00:08:25;;;;;;;2.17;2.08;;;3.50;1.40;;;4.54;100.00;95472.58;637524;212;32396;-76
2022/05/02 00:11:13;;;;;;;2.83;2.40;;;3.50;1.40;;;4.49;100.00;95473.43;646206;216;31581;-72
2022/05/02 00:14:00;;;;;;;6.55;2.17;;;3.40;1.40;;;4.46;100.00;95469.08;647593;212;31637;-76
2022/05/02 00:16:42;;;;;;;2.05;1.70;;;3.30;1.40;;;4.49;100.00;95470.00;646595;212;31604;-74
2022/05/02 00:19:24;;;;;;;4.12;2.80;;;3.50;1.40;;;4.53;100.00;95468.07;646805;212;31711;-75
2022/05/02 00:24:51;;;;;;;1.52;1.42;;;3.40;1.40;;;4.35;100.00;95459.52;647370;216;31670;-74
2022/05/02 00:27:33;;;;;;;1.00;0.90;;;3.30;1.40;;;4.33;100.00;95462.58;647271;212;31699;-74
2022/05/02 00:30:15;;;;;;;1.55;0.90;;;2.90;1.40;;;4.05;100.00;95462.17;648084;216;31622;-74
2022/05/02 00:35:57;;;;;;;2.80;1.23;;;3.00;1.40;;;3.98;100.00;95452.28;646409;216;31618;-74
2022/05/02 00:38:39;;;;;;;1.65;1.52;;;2.80;1.40;;;3.94;100.00;95457.30;620338;222;31841;-76
2022/05/02 00:41:26;;;;;;;1.98;1.25;;;3.00;1.40;;;3.93;100.00;95448.30;618378;226;32059;-72
2022/05/02 00:44:14;;;;;;;3.10;1.23;;;2.90;1.40;;;3.90;100.00;95448.25;619618;222;32111;-77
2022/05/02 00:46:56;;;;;;;1.85;1.48;;;2.90;1.40;;;3.96;100.00;95441.49;647685;216;31587;-74
2022/05/02 00:49:38;;;;;;;2.70;1.30;;;3.00;1.40;;;3.93;100.00;95436.55;646283;212;31577;-74
2022/05/02 00:52:19;;;;;;;2.25;1.37;;;3.00;1.40;;;3.98;100.00;95438.70;619063;225;31967;-75
2022/05/02 00:55:01;;;;;;;2.60;1.45;;;3.00;1.40;;;4.04;100.00;95438.62;647068;216;31553;-73
2022/05/02 00:57:43;;;;;;;0.70;0.60;;;3.20;1.40;;;3.99;100.00;95435.06;619279;226;31869;-74
2022/05/02 01:00:29;;;;;;;1.87;1.35;;;3.10;1.40;;;3.98;100.00;95425.63;648699;216;31595;-75
2022/05/02 01:03:11;;;;;;;3.15;1.20;;;3.00;1.40;;;3.95;100.00;95422.82;647196;216;31565;-76
2022/05/02 01:08:40;;;;;;;1.67;1.55;;;3.10;1.40;;;4.11;100.00;95422.63;636655;212;31746;-76
2022/05/02 01:11:21;;;;;;;4.25;2.67;;;3.20;1.40;;;4.15;100.00;95425.16;647067;216;31528;-76
2022/05/02 01:14:03;;;;;;;2.10;1.25;;;3.10;1.40;;;4.07;100.00;95423.39;647413;216;31577;-74
2022/05/02 01:16:45;;;;;;;1.80;1.25;;;3.00;1.40;;;3.97;100.00;95424.49;647979;216;31537;-74
2022/05/02 01:19:26;;;;;;;3.83;2.12;;;3.00;1.40;;;3.97;100.00;95417.52;648849;216;31553;-74
2022/05/02 01:22:08;;;;;;;1.40;1.10;;;3.00;1.40;;;3.99;100.00;95417.04;646963;212;31581;-73
2022/05/02 01:24:50;;;;;;;4.35;2.22;;;3.10;1.40;;;4.05;100.00;95413.52;647007;212;31579;-74
2022/05/02 01:28:28;;;;;;;2.33;1.77;;;3.10;1.40;;;4.02;100.00;95412.44;647281;212;31854;-76
2022/05/02 01:31:08;;;;;;;4.03;1.55;;;3.00;1.40;;;4.09;100.00;95405.32;646518;216;31595;-75
2022/05/02 01:35:51;;;;;;;1.73;1.15;;;3.10;1.40;;;4.07;100.00;95399.68;646951;212;31746;-74
2022/05/02 01:38:33;;;;;;;1.70;1.45;;;3.20;1.40;;;4.14;100.00;95395.54;647368;212;31567;-74
2022/05/02 01:41:14;;;;;;;2.92;1.40;;;3.30;1.40;;;4.15;100.00;95392.86;648198;216;31551;-74
2022/05/02 01:43:57;;;;;;;2.28;2.08;;;3.30;1.40;;;4.17;100.00;95395.87;621426;226;32018;-75
2022/05/02 01:46:39;;;;;;;2.10;1.90;;;3.20;1.40;;;4.07;100.00;95394.00;646052;212;31679;-74
2022/05/02 01:49:20;;;;;;;4.90;3.05;;;3.00;1.40;;;4.07;100.00;95395.81;648232;216;31910;-74
2022/05/02 01:52:02;;;;;;;1.70;1.60;;;3.10;1.40;;;4.13;100.00;95386.58;646996;216;31590;-74
2022/05/02 01:54:44;;;;;;;1.25;1.10;;;3.20;1.40;;;4.12;100.00;95387.00;646170;212;31571;-74
2022/05/02 01:57:26;;;;;;;4.05;2.12;;;3.20;1.40;;;4.03;100.00;95387.55;647038;216;31820;-75
2022/05/02 02:00:09;;;;;;;5.37;1.77;;;3.00;1.40;;;3.97;100.00;95389.14;646768;212;31576;-74
2022/05/02 02:02:51;;;;;;;5.30;1.30;;;3.00;1.40;;;3.97;100.00;95382.70;647002;212;42179;-74
2022/05/02 02:08:24;;;;;;;1.60;1.30;;;3.00;1.40;;;3.95;100.00;95380.34;638370;212;32245;-75
2022/05/02 02:11:05;;;;;;;5.37;2.47;;;3.10;1.40;;;4.02;100.00;95388.45;646347;216;31578;-75
2022/05/02 02:13:47;;;;;;;2.28;1.92;;;3.20;1.40;;;4.00;100.00;95379.81;647604;212;32535;-74
2022/05/02 02:16:29;;;;;;;1.83;1.62;;;3.10;1.40;;;3.98;100.00;95383.03;648180;216;32112;-76
2022/05/02 02:19:11;;;;;;;5.00;2.22;;;3.00;1.40;;;3.99;100.00;95387.81;648542;216;31719;-76
2022/05/02 02:21:52;;;;;;;3.30;1.40;;;3.00;1.40;;;4.01;100.00;95384.54;647323;216;31937;-74
2022/05/02 02:24:35;;;;;;;3.03;1.80;;;3.00;1.40;;;3.97;100.00;95382.55;646116;212;32175;-76
2022/05/02 02:27:17;;;;;;;5.20;2.00;;;3.00;1.40;;;3.90;100.00;95377.67;620065;225;31945;-75
2022/05/02 02:29:58;;;;;;;3.60;1.70;;;2.90;1.40;;;3.89;100.00;95384.27;646797;212;31806;-76
2022/05/02 02:32:41;;;;;;;3.20;1.70;;;2.70;1.40;;;3.60;100.00;95388.91;647060;216;31543;-73
2022/05/02 02:35:51;;;;;;;1.05;0.95;;;2.30;1.40;;;3.29;100.00;95386.58;648927;216;31577;-74
2022/05/02 02:38:33;;;;;;;3.58;1.30;;;2.00;1.40;;;3.13;100.00;95383.03;648176;212;31578;-74
2022/05/02 02:41:15;;;;;;;2.40;2.10;;;2.00;1.40;;;3.24;100.00;95378.99;619380;226;31841;-74
2022/05/02 02:43:57;;;;;;;2.80;2.05;;;2.20;1.40;;;3.29;100.00;95374.63;647344;212;32332;-75
2022/05/02 02:46:40;;;;;;;4.03;1.65;;;2.10;1.40;;;3.17;100.00;95375.37;647131;212;42463;-75
2022/05/02 02:49:22;;;;;;;4.22;1.80;;;2.00;1.40;;;3.06;100.00;95378.81;618893;226;31924;-74
2022/05/02 02:52:04;;;;;;;1.62;1.50;;;2.00;1.40;;;3.04;100.00;95382.55;646513;216;31634;-74
2022/05/02 02:54:51;;;;;;;1.80;1.50;;;2.00;1.40;;;3.11;100.00;95375.25;619123;226;32528;-73
2022/05/02 02:57:36;;;;;;;3.97;1.87;;;2.20;1.40;;;3.20;100.00;95375.76;642530;215;31692;-74
2022/05/02 03:02:54;;;;;;;1.37;0.93;;;2.40;1.40;;;3.26;100.00;95375.36;645931;216;31568;-73
2022/05/02 03:08:34;;;;;;;4.62;2.70;;;2.40;1.40;;;3.33;100.00;95368.75;611933;222;32041;-75
2022/05/02 03:11:19;;;;;;;2.10;1.20;;;2.50;1.40;;;3.39;100.00;95372.30;647908;216;31556;-74
2022/05/02 03:14:01;;;;;;;4.47;1.62;;;2.50;1.40;;;3.37;100.00;95373.62;646775;212;31560;-75
2022/05/02 03:16:45;;;;;;;1.52;1.42;;;2.40;1.40;;;3.33;100.00;95368.11;646917;216;31627;-74
2022/05/02 03:19:27;;;;;;;2.20;1.30;;;2.40;1.40;;;3.38;100.00;95365.21;647051;212;31691;-74
2022/05/02 03:22:09;;;;;;;3.05;2.05;;;2.50;1.40;;;3.47;100.00;95367.50;646706;216;31534;-76
2022/05/02 03:24:51;;;;;;;1.60;0.60;;;2.40;1.40;;;3.22;100.00;95370.58;646875;216;31530;-74
2022/05/02 03:27:33;;;;;;;1.92;0.85;;;2.10;1.40;;;3.15;100.00;95375.59;646949;216;31627;-74
2022/05/02 03:30:15;;;;;;;2.53;1.55;;;2.00;1.40;;;2.97;100.00;95372.31;620041;226;31869;-74
2022/05/02 03:32:56;;;;;;;2.40;1.33;;;1.80;1.40;;;2.84;100.00;95370.34;618316;226;31896;-74
2022/05/02 03:35:52;;;;;;;2.53;1.12;;;1.80;1.40;;;2.81;100.00;95377.34;646930;216;31591;-74
2022/05/02 03:38:37;;;;;;;1.65;1.17;;;1.70;1.40;;;2.66;100.00;95375.34;620030;226;32023;-73
2022/05/02 03:41:19;;;;;;;0.90;0.90;;;1.60;1.40;;;2.66;100.00;95374.05;646519;216;31522;-74
2022/05/02 03:44:02;;;;;;;1.87;1.10;;;1.60;1.40;;;2.75;100.00;95369.56;646060;216;31585;-74
2022/05/02 03:46:43;;;;;;;2.67;1.27;;;1.80;1.40;;;2.94;100.00;95369.88;646891;216;31534;-74
2022/05/02 03:49:25;;;;;;;1.50;1.00;;;2.00;1.40;;;2.92;100.00;95370.56;647350;216;31560;-75
2022/05/02 03:52:07;;;;;;;2.00;1.90;;;1.90;1.40;;;2.88;100.00;95371.50;646213;216;31743;-74
2022/05/02 03:54:49;;;;;;;1.50;0.90;;;1.90;1.40;;;2.94;100.00;95382.25;647233;213;31524;-73
2022/05/02 03:57:31;;;;;;;2.70;1.30;;;2.00;1.40;;;3.09;100.00;95374.97;646849;212;31585;-75
2022/05/02 04:00:14;;;;;;;2.55;1.92;;;2.10;1.40;;;3.04;100.00;95369.38;647648;212;31587;-74
2022/05/02 04:02:56;;;;;;;2.20;2.00;;;2.00;1.40;;;3.03;100.00;95371.94;647423;216;31543;-75
2022/05/02 04:05:38;;;;;;;1.80;1.70;;;2.00;1.40;;;3.06;100.00;95369.72;646234;212;31739;-74
2022/05/02 04:08:20;;;;;;;1.42;1.00;;;2.00;1.40;;;3.12;100.00;95369.20;612283;226;32089;-74
2022/05/02 04:11:01;;;;;;;2.05;1.10;;;2.20;1.40;;;3.09;100.00;95370.74;648619;212;31525;-75
2022/05/02 04:13:43;;;;;;;1.30;1.10;;;2.20;1.40;;;3.23;100.00;95362.70;646105;212;31572;-76
2022/05/02 04:16:25;;;;;;;1.30;0.90;;;2.30;1.40;;;3.28;100.00;95362.56;646463;212;31563;-75
2022/05/02 04:19:07;;;;;;;2.37;2.10;;;2.30;1.40;;;3.29;100.00;95364.55;647443;216;31571;-74
2022/05/02 04:21:48;;;;;;;3.10;1.60;;;2.30;1.40;;;3.31;100.00;95364.67;647654;212;31683;-74
2022/05/02 04:24:32;;;;;;;3.72;2.22;;;2.20;1.40;;;3.28;100.00;95368.25;648150;212;31711;-74
2022/05/02 04:27:14;;;;;;;4.40;1.65;;;2.10;1.40;;;3.25;100.00;95368.39;647555;216;31797;-76
2022/05/02 04:29:56;;;;;;;3.05;1.52;;;2.00;1.40;;;3.22;100.00;95372.83;646352;212;31564;-75
2022/05/02 04:32:37;;;;;;;2.17;1.50;;;2.10;1.40;;;3.18;100.00;95375.11;646145;212;31500;-73
2022/05/02 04:35:50;;;;;;;3.37;1.48;;;2.20;1.40;;;3.39;100.00;95374.59;646973;216;31820;-74
2022/05/02 04:38:32;;;;;;;2.62;2.30;;;2.40;1.40;;;3.49;100.00;95382.36;647039;216;31536;-74
2022/05/02 04:41:14;;;;;;;1.15;1.05;;;2.50;1.40;;;3.69;100.00;95373.30;646984;216;31565;-74
2022/05/02 04:43:56;;;;;;;3.13;2.60;;;2.80;1.40;;;3.91;100.00;95371.64;646257;212;35142;-76
2022/05/02 04:46:44;;;;;;;1.43;1.33;;;3.00;1.40;;;4.07;100.00;95371.36;646907;216;31908;-74
2022/05/02 04:49:32;;;;;;;3.45;1.62;;;3.20;1.40;;;4.28;100.00;95367.26;648035;216;31604;-75
2022/05/02 04:52:13;;;;;;;2.75;1.58;;;3.50;1.40;;;4.47;100.00;95369.23;618823;226;33287;-74
2022/05/02 04:54:56;;;;;;;3.50;2.50;;;3.60;1.40;;;4.57;100.00;95366.06;619896;226;31860;-75
2022/05/02 04:57:41;;;;;;;2.90;1.70;;;3.70;1.40;;;4.73;100.00;95365.66;647022;216;31676;-75
2022/05/02 05:00:23;;;;;;;3.80;1.95;;;3.80;1.40;;;4.89;100.00;95364.48;646203;216;31604;-74
2022/05/02 05:03:07;;;;;;;3.30;2.42;;;3.80;1.40;;;4.90;100.00;95367.87;645281;216;32033;-75
2022/05/02 05:05:49;;;;;;;2.67;1.30;;;3.90;1.40;;;4.87;100.00;95363.52;646994;212;31693;-75
2022/05/02 05:08:31;;;;;;;6.37;2.00;;;3.90;1.40;;;4.99;100.00;95355.66;647869;216;31778;-74
2022/05/02 05:11:34;;;;;;;1.20;1.20;;;4.00;1.40;;;5.08;100.00;95357.81;647221;212;31591;-75
2022/05/02 05:17:35;;;;;;;2.50;2.30;;;4.10;1.40;;;5.31;100.00;95353.22;642452;214;31561;-76
2022/05/02 05:20:20;;;;;;;2.08;1.70;;;4.20;1.40;;;5.55;100.00;95351.33;646895;216;31572;-74
2022/05/02 05:23:11;;;;;;;1.58;1.48;;;4.40;1.40;;;5.64;100.00;95349.59;631342;221;31782;-73
2022/05/02 05:27:02;;;;;;;3.50;1.80;;;4.60;1.40;;;5.68;100.00;95352.86;647249;216;31602;-73
2022/05/02 05:30:02;;;;;;;3.83;3.53;;;4.60;1.40;;;5.95;100.00;95354.98;647133;216;31643;-73
2022/05/02 05:36:09;;;;;;;3.05;1.48;;;4.90;1.40;;;6.00;100.00;95352.13;646882;216;31615;-74
2022/05/02 05:38:51;;;;;;;4.47;2.10;;;4.80;1.40;;;6.03;100.00;95348.67;645977;216;31673;-76
2022/05/02 05:41:40;;;;;;;2.80;1.00;;;5.00;1.40;;;6.49;100.00;95349.92;618394;222;42589;-74
2022/05/02 05:44:44;;;;;;;3.25;1.58;;;5.30;1.40;;;6.47;100.00;95355.48;646169;212;42165;-77
2022/05/02 05:47:40;;;;;;;3.22;1.83;;;5.30;1.40;;;6.48;100.00;95348.58;646539;216;42164;-72
2022/05/02 05:50:24;;;;;;;2.60;1.20;;;5.40;1.40;;;6.62;100.00;95346.61;646559;216;31559;-73
2022/05/02 05:53:16;;;;;;;2.78;2.28;;;5.50;1.40;;;6.94;100.00;95352.64;646605;216;31690;-73
2022/05/02 05:56:04;;;;;;;2.08;1.60;;;5.70;1.40;;;7.05;100.00;95346.06;615158;226;31888;-74
2022/05/02 05:58:47;;;;;;;2.70;2.50;;;5.80;1.40;;;7.23;100.00;95346.39;647533;216;31957;-73
2022/05/02 06:01:51;;;;;;;3.23;2.93;;;6.00;1.40;;;7.60;100.00;95346.51;647894;216;32101;-73
2022/05/02 06:04:34;;;;;;;3.45;3.17;;;6.20;1.40;;;7.88;100.00;95345.19;645881;216;31596;-73
2022/05/02 06:07:19;;;;;;;2.90;2.65;;;6.40;1.40;;;7.65;100.00;95346.70;619581;222;43339;-76
2022/05/02 06:10:02;;;;;;;3.03;2.73;;;6.40;1.40;;;7.73;100.00;95348.05;645435;216;31600;-73
2022/05/02 06:12:43;;;;;;;2.45;1.60;;;6.30;1.40;;;7.90;100.00;95349.38;646206;216;32470;-73
2022/05/02 06:21:04;;;;;;;4.63;1.90;;;6.60;1.40;;;7.98;100.00;95352.62;646056;216;31639;-73
2022/05/02 06:23:45;;;;;;;3.50;2.27;;;6.70;1.40;;;8.17;100.00;95354.22;646314;216;31825;-73
2022/05/02 06:26:28;;;;;;;3.08;2.17;;;6.90;1.40;;;8.66;100.00;95350.14;645704;216;32302;-73
2022/05/02 06:29:10;;;;;;;4.60;2.50;;;7.30;1.40;;;9.09;100.00;95357.09;645687;216;32124;-73
2022/05/02 06:31:52;;;;;;;4.25;2.50;;;7.60;1.40;;;9.42;100.00;95354.65;646620;216;42320;-74
2022/05/02 06:36:15;;;;;;;2.58;2.20;;;8.00;1.40;;;9.71;100.00;95353.07;647109;216;31573;-73
2022/05/02 06:39:00;;;;;;;3.50;2.95;;;8.30;1.40;;;10.09;100.00;95358.12;645914;214;31566;-73
2022/05/02 06:42:15;;;;;;;3.20;2.73;;;8.40;1.40;;;10.20;100.00;95356.31;618071;222;32067;-73
2022/05/02 06:44:59;;;;;;;2.40;2.20;;;8.70;1.40;;;10.36;100.00;95358.30;646533;216;32397;-73
2022/05/02 06:48:17;;;;;;;7.00;3.62;;;9.00;1.40;;;10.70;100.00;95360.13;646850;213;31567;-74
2022/05/02 06:51:04;;;;;;;4.30;2.77;;;9.20;1.40;;;10.82;100.00;95356.92;645740;216;32237;-73
2022/05/02 06:53:52;;;;;;;4.50;3.80;;;9.40;1.40;;;11.31;100.00;95360.94;618750;225;31946;-73
2022/05/02 06:59:49;;;;;;;2.97;2.62;;;9.80;1.40;;;11.53;100.00;95359.94;645740;212;42222;-73
2022/05/02 07:02:56;;;;;;;4.80;2.80;;;9.70;1.40;;;11.84;100.00;95360.39;647003;216;31572;-73
2022/05/02 07:05:44;;;;;;;5.20;3.40;;;10.00;1.40;;;11.93;100.00;95356.91;645455;216;31527;-74
2022/05/02 07:08:29;;;;;;;5.00;4.40;;;10.30;1.40;;;12.46;100.00;95349.20;642281;212;32031;-73
2022/05/02 07:11:10;;;;;;;3.40;2.90;;;10.70;1.40;;;12.13;100.00;95348.13;645983;216;32266;-73
2022/05/02 07:16:27;;;;;;;4.53;3.47;;;10.50;1.40;;;12.31;100.00;95344.30;630488;217;31875;-73
2022/05/02 07:21:58;;;;;;;4.72;3.50;;;11.10;1.40;;;12.51;100.00;95344.59;646701;216;31575;-73
2022/05/02 07:24:57;;;;;;;4.85;3.55;;;11.40;1.40;;;13.16;100.00;95346.61;646420;216;41556;-73
2022/05/02 07:28:22;;;;;;;4.53;2.90;;;11.60;1.40;;;13.76;100.00;95337.25;648267;216;31609;-80
2022/05/02 07:31:09;;;;;;;5.10;4.20;;;12.10;1.40;;;13.72;100.00;95337.90;646789;216;31907;-73
2022/05/02 07:35:54;;;;;;;5.12;3.80;;;12.80;1.40;;;14.28;100.00;95336.98;645498;216;44327;-73
2022/05/02 07:38:35;;;;;;;5.60;3.50;;;12.90;1.40;;;14.96;100.00;95337.73;647043;216;39700;-73
2022/05/02 07:41:22;;;;;;;6.00;4.05;;;13.20;1.40;;;14.56;100.00;95347.03;647708;216;31793;-73
2022/05/02 07:44:05;;;;;;;4.37;3.75;;;13.30;1.40;;;15.26;100.00;95340.70;647105;212;31667;-74
2022/05/02 07:46:50;;;;;;;7.25;3.70;;;13.30;1.40;;;15.27;100.00;95340.01;645656;216;31801;-75
2022/05/02 07:49:32;;;;;;;6.90;4.45;;;13.70;1.40;;;16.02;100.00;95335.80;646228;212;31541;-75
2022/05/02 07:52:13;;;;;;;4.93;3.37;;;14.50;1.40;;;16.23;100.00;95333.73;645526;212;31701;-73
2022/05/02 07:54:57;;;;;;;6.45;4.03;;;14.60;1.40;;;16.29;100.00;95329.23;646447;216;31596;-73
2022/05/02 07:57:39;;;;;;;5.10;3.85;;;14.30;1.40;;;16.75;100.00;95332.28;647206;216;31604;-73
2022/05/02 08:00:22;;;;;;;6.80;4.45;;;14.60;1.40;;;16.88;100.00;95326.73;646040;216;32229;-73
2022/05/02 08:03:03;;;;;;;6.55;4.72;;;14.60;1.40;;;16.83;100.00;95324.77;646293;212;42868;-74
2022/05/02 08:05:44;;;;;;;5.50;4.00;;;14.70;1.40;;;16.10;100.00;95328.77;646450;216;31774;-74
2022/05/02 08:09:02;;;;;;;5.70;4.60;;;14.70;1.40;;;16.45;100.00;95323.34;641844;216;31733;-74
2022/05/02 08:14:26;;;;;;;7.03;4.43;;;14.70;1.40;;;17.22;100.00;95323.58;645957;216;32195;-73
2022/05/02 08:17:10;;;;;;;6.53;4.95;;;14.50;1.40;;;16.27;100.00;95327.33;618270;226;42676;-73
2022/05/02 08:19:56;;;;;;;5.62;4.80;;;14.30;1.40;;;17.05;100.00;95322.16;646829;216;31543;-74
2022/05/02 08:28:09;;;;;;;6.80;4.30;;;15.10;1.40;;;17.81;100.00;95318.59;646372;216;31639;-73
2022/05/02 08:30:58;;;;;;;7.60;4.57;;;15.50;1.40;;;18.09;98.84;95315.47;645428;216;31578;-74
2022/05/02 08:36:03;;;;;;;6.90;5.30;;;16.00;1.40;;;17.64;94.81;95320.31;646033;216;31583;-73
2022/05/02 08:38:48;;;;;;;6.37;5.37;;;16.00;1.40;;;18.22;97.48;95319.17;645062;216;31665;-74
2022/05/02 08:42:07;;;;;;;6.57;5.12;;;16.20;1.40;;;16.62;100.00;95323.89;647124;212;31546;-73
2022/05/02 08:45:04;;;;;;;6.28;4.70;;;15.10;1.40;;;17.70;100.00;95314.66;646164;216;31705;-73
2022/05/02 08:47:53;;;;;;;7.68;5.93;;;15.80;1.40;;;18.18;99.97;95311.10;646737;212;31588;-74
2022/05/02 08:50:34;;;;;;;7.90;5.70;;;16.40;1.40;;;18.69;94.16;95311.50;647146;212;32019;-73
2022/05/02 08:53:43;;;;;;;8.15;5.43;;;16.40;1.40;;;17.75;94.44;95308.30;618600;225;32070;-73
2022/05/02 08:56:44;;;;;;;7.50;6.40;;;16.10;1.40;;;18.59;95.40;95310.80;645969;216;31563;-74
2022/05/02 08:59:34;;;;;;;7.30;5.22;;;15.70;1.40;;;17.77;93.31;95314.84;618912;225;32054;-73
2022/05/02 09:02:24;;;;;;;7.97;6.15;;;15.30;1.40;;;17.80;94.40;95311.92;645189;212;31559;-74
2022/05/02 09:05:22;;;;;;;5.90;4.90;;;15.30;1.40;;;17.22;95.24;95313.92;646376;216;31653;-74
2022/05/02 09:08:12;;;;;;;6.05;5.15;;;15.50;1.40;;;18.99;94.48;95304.84;643232;216;31726;-74
2022/05/02 09:11:00;;;;;;;7.40;5.50;;;16.30;1.40;;;18.35;85.48;95308.20;646302;216;31577;-73
2022/05/02 09:13:47;;;;;;;7.45;5.43;;;16.20;1.40;;;17.47;90.07;95313.20;646886;212;32099;-74
2022/05/02 09:16:45;;;;;;;7.40;5.30;;;15.60;1.40;;;17.51;97.96;95309.70;646543;212;32164;-74
2022/05/02 09:22:48;;;;;;;6.13;5.23;;;16.20;1.40;;;19.28;88.93;95306.08;646065;216;42177;-74
2022/05/02 09:25:57;;;;;;;8.02;5.60;;;16.20;1.40;;;19.70;85.61;95307.14;645992;216;42909;-74
2022/05/02 09:28:56;;;;;;;4.43;4.00;;;16.60;1.40;;;17.78;79.64;95314.19;647278;216;31594;-75
2022/05/02 09:31:58;;;;;;;5.12;4.12;;;15.80;1.40;;;18.94;86.20;95307.80;645858;216;31589;-74
2022/05/02 09:35:53;;;;;;;6.70;5.20;;;17.50;1.40;;;19.43;81.18;95311.11;646331;216;31567;-74
2022/05/02 09:38:53;;;;;;;8.63;5.37;;;17.00;1.40;;;19.08;80.92;95307.70;646707;216;42225;-73
2022/05/02 09:42:06;;;;;;;5.95;4.53;;;16.60;1.40;;;19.58;83.83;95309.16;647956;216;31573;-74
2022/05/02 09:51:08;;;;;;;4.20;3.60;;;19.90;1.40;;;22.99;67.84;95289.36;646878;216;31588;-74
2022/05/02 09:54:12;;;;;;;5.28;4.35;;;20.20;1.40;;;21.58;69.49;95291.79;646999;216;31528;-74
2022/05/02 09:56:54;;;;;;;4.80;3.87;;;18.40;1.40;;;20.55;71.57;95297.33;645639;216;31884;-74
2022/05/02 09:59:38;;;;;;;5.30;4.78;;;17.60;1.40;;;21.60;69.92;95290.77;646949;216;42208;-74
2022/05/02 10:02:20;;;;;;;6.25;5.22;;;17.90;1.40;;;22.10;69.58;95286.28;646433;216;31596;-74
2022/05/02 10:05:06;;;;;;;5.60;4.72;;;20.00;1.40;;;21.39;69.72;95285.52;642478;216;31648;-74
2022/05/02 10:08:06;;;;;;;7.12;5.30;;;17.90;1.40;;;20.97;72.89;95294.27;619754;226;32067;-74
2022/05/02 10:11:07;;;;;;;4.75;4.25;;;17.50;1.40;;;21.36;71.36;95287.52;645220;212;31581;-74
2022/05/02 10:14:03;;;;;;;7.73;5.50;;;17.40;1.40;;;20.55;75.27;95291.70;618944;226;34969;-74
2022/05/02 10:16:58;;;;;;;6.28;5.62;;;16.90;1.40;;;19.60;75.62;95290.83;645756;215;31578;-73
2022/05/02 10:20:00;;;;;;;7.93;5.05;;;16.50;1.40;;;17.91;82.59;95294.52;646799;212;31641;-74
2022/05/02 10:22:56;;;;;;;6.82;5.43;;;16.00;1.40;;;19.24;82.60;95284.03;646062;216;31723;-74
2022/05/02 10:25:42;;;;;;;5.10;3.90;;;16.60;1.40;;;20.21;75.91;95289.70;646033;212;31543;-74
2022/05/02 10:28:47;;;;;;;5.80;4.03;;;17.00;1.40;;;20.38;73.03;95282.55;646047;212;32117;-74
2022/05/02 10:31:29;;;;;;;6.47;5.00;;;17.40;1.40;;;20.28;74.04;95282.81;646269;216;31568;-74
2022/05/02 10:35:51;;;;;;;6.03;3.80;;;17.10;1.40;;;17.66;79.99;95288.97;645252;212;43031;-73
2022/05/02 10:38:32;;;;;;;4.57;4.05;;;16.50;1.40;;;21.45;77.79;95271.74;632361;221;31775;-74
2022/05/02 10:41:14;;;;;;;5.30;4.10;;;20.80;1.40;;;20.84;73.42;95275.02;646161;216;31952;-74
2022/05/02 10:44:01;;;;;;;4.82;4.32;;;19.20;1.40;;;22.92;63.45;95267.73;645882;212;38838;-74
2022/05/02 10:46:44;;;;;;;4.53;4.00;;;20.70;1.40;;;24.45;56.37;95272.91;646652;216;32197;-74
2022/05/02 10:49:30;;;;;;;5.82;4.35;;;22.90;1.40;;;25.46;53.54;95262.00;646385;212;35520;-75
2022/05/02 10:52:52;;;;;;;5.50;4.12;;;22.90;1.40;;;27.61;49.34;95255.02;646134;216;31695;-75
2022/05/02 10:55:39;;;;;;;7.50;5.20;;;24.70;1.40;;;24.87;50.23;95254.59;645967;212;42243;-74
2022/05/02 10:58:21;;;;;;;5.80;5.00;;;21.20;1.40;;;23.71;53.69;95257.17;641221;216;32301;-74
2022/05/02 11:01:09;;;;;;;4.80;4.40;;;19.90;1.40;;;22.48;57.39;95257.06;619412;226;31977;-74
2022/05/02 11:06:32;;;;;;;5.70;3.70;;;21.40;1.40;;;26.66;49.14;95251.30;646287;212;31600;-74
2022/05/02 11:09:19;;;;;;;4.10;3.70;;;24.00;1.40;;;28.37;43.90;95239.09;638653;216;31727;-75
2022/05/02 11:12:00;;;;;;;4.12;3.50;;;23.40;1.40;;;25.93;44.66;95244.99;646184;216;32163;-74
2022/05/02 11:14:52;;;;;;;4.47;3.90;;;21.20;1.40;;;25.88;46.77;95243.92;646493;216;31578;-75
2022/05/02 11:17:45;;;;;;;4.50;2.70;;;20.60;1.40;;;24.69;47.47;95247.27;646639;216;42911;-74
2022/05/02 11:23:39;;;;;;;3.90;3.50;;;17.40;1.40;;;19.19;67.94;95260.31;645864;216;32276;-74
2022/05/02 11:26:32;;;;;;;3.20;2.58;;;17.30;1.40;;;19.94;70.04;95255.69;646353;216;42218;-74
2022/05/02 11:31:57;;;;;;;4.85;3.08;;;21.20;1.40;;;24.23;52.62;95245.43;647446;216;31583;-73
2022/05/02 11:35:51;;;;;;;3.80;3.00;;;20.40;1.40;;;23.59;54.91;95243.80;645477;216;33582;-74
2022/05/02 11:41:13;;;;;;;4.68;4.18;;;17.60;1.40;;;19.66;69.33;95252.33;618508;226;32257;-74
2022/05/02 11:43:56;;;;;;;4.60;4.20;;;16.80;1.40;;;19.37;72.76;95252.41;646095;216;31606;-75
2022/05/02 11:46:57;;;;;;;4.80;4.40;;;17.10;1.40;;;20.17;68.75;95245.66;646703;216;31562;-74
2022/05/02 11:49:51;;;;;;;4.62;4.22;;;17.40;1.40;;;17.51;79.08;95253.45;646613;216;31561;-73
2022/05/02 11:52:33;;;;;;;5.15;4.00;;;16.30;1.40;;;17.31;81.80;95248.00;646683;216;31906;-73
2022/05/02 11:55:15;;;;;;;5.20;3.90;;;16.60;1.40;;;21.49;73.55;95231.30;646717;216;32187;-73
2022/05/02 11:58:05;;;;;;;3.97;3.10;;;20.40;1.40;;;24.46;55.44;95221.05;646012;216;42297;-74
2022/05/02 12:00:44;;;;;;;5.22;4.22;;;21.70;1.40;;;22.34;61.03;95224.41;630324;221;32156;-74
2022/05/02 12:03:26;;;;;;;4.97;4.15;;;19.90;1.40;;;21.90;62.70;95226.02;646402;216;31593;-74
2022/05/02 12:06:08;;;;;;;5.25;3.92;;;19.50;1.40;;;24.76;54.79;95211.47;645558;216;31562;-74
2022/05/02 12:08:49;;;;;;;6.15;4.60;;;21.90;1.40;;;25.66;48.75;95205.83;641418;216;31773;-74
2022/05/02 12:11:32;;;;;;;4.95;4.22;;;21.90;1.40;;;23.91;53.22;95213.66;646604;216;31832;-75
2022/05/02 12:14:13;;;;;;;4.97;4.57;;;20.90;1.40;;;25.15;52.33;95213.06;646187;216;42250;-74
2022/05/02 12:17:11;;;;;;;5.60;4.60;;;21.70;1.40;;;26.66;47.74;95204.96;645247;216;31636;-75
2022/05/02 12:19:52;;;;;;;5.15;4.50;;;21.50;1.40;;;26.17;50.02;95208.55;618657;225;32203;-74
2022/05/02 12:22:34;;;;;;;4.90;4.35;;;22.40;1.40;;;29.17;43.23;95198.59;646113;216;31685;-74
2022/05/02 12:25:16;;;;;;;5.40;4.80;;;24.50;1.40;;;31.42;38.19;95186.87;646647;212;31615;-74
2022/05/02 12:30:32;;;;;;;4.70;4.30;;;23.60;1.40;;;31.33;37.98;95186.83;618709;226;31879;-75
2022/05/02 12:35:51;;;;;;;5.47;4.97;;;23.70;1.40;;;30.63;39.42;95177.68;646828;216;32338;-75
2022/05/02 12:38:35;;;;;;;4.78;4.30;;;23.90;1.40;;;28.36;42.71;95186.74;646935;216;42480;-73
2022/05/02 12:41:16;;;;;;;4.50;4.10;;;23.80;1.40;;;31.55;36.28;95180.06;645994;216;31560;-75
2022/05/02 12:44:11;;;;;;;5.53;4.93;;;23.20;1.40;;;29.52;38.45;95179.30;647684;216;42166;-75
2022/05/02 12:46:52;;;;;;;5.12;4.62;;;21.90;1.40;;;27.97;43.50;95179.73;645327;216;31590;-74
2022/05/02 12:49:38;;;;;;;4.70;4.18;;;22.80;1.40;;;29.06;41.25;95173.91;646941;216;31574;-75
2022/05/02 12:54:56;;;;;;;5.70;3.90;;;23.80;1.40;;;27.35;41.34;95170.47;647916;216;31602;-77
2022/05/02 13:06:09;;;;;;;3.70;3.40;;;21.60;1.40;;;26.68;41.08;95163.33;648161;212;31590;-77
2022/05/02 13:09:07;;;;;;;3.70;3.37;;;20.50;1.40;;;25.94;42.23;95165.67;638490;212;31802;-76
2022/05/02 13:11:50;;;;;;;3.42;3.12;;;19.80;1.40;;;20.43;54.73;95173.97;647549;216;32070;-76
2022/05/02 13:14:37;;;;;;;3.53;3.23;;;17.40;1.40;;;18.87;68.40;95177.72;621858;222;32080;-77
2022/05/02 13:17:21;;;;;;;4.20;3.40;;;16.90;1.40;;;19.77;65.35;95171.97;646330;216;31539;-75
2022/05/02 13:20:09;;;;;;;4.07;3.40;;;17.30;1.40;;;20.77;60.11;95164.20;648986;212;31609;-76
2022/05/02 13:25:47;;;;;;;3.30;2.80;;;18.30;1.40;;;21.74;55.10;95152.95;648899;212;31607;-77
2022/05/02 13:29:15;;;;;;;3.17;2.87;;;18.50;1.40;;;22.27;53.59;95152.14;639097;217;31826;-77